createdAt,value
2023-04-22T00:02:14.842Z,71.91
2023-04-22T00:04:47.794Z,71.82
2023-04-22T00:07:20.351Z,71.95
2023-04-22T00:09:52.626Z,72.22
2023-04-22T00:12:25.313Z,72.38
2023-04-22T00:14:57.481Z,72.39
2023-04-22T00:17:29.904Z,72.45
2023-04-22T00:20:02.617Z,72.64
2023-04-22T00:22:36.798Z,72.34
2023-04-22T00:25:10.166Z,72.33
2023-04-22T00:27:42.893Z,72.13
2023-04-22T00:30:16.452Z,72.67
2023-04-22T00:32:49.290Z,72.79
2023-04-22T00:35:21.677Z,73.43
2023-04-22T00:37:53.954Z,73.84
2023-04-22T00:40:28.594Z,73.95
2023-04-22T00:43:04.084Z,74.20
2023-04-22T00:45:38.156Z,74.33
2023-04-22T00:48:11.419Z,74.54
2023-04-22T00:50:44.215Z,74.87
2023-04-22T00:53:17.905Z,75.03
2023-04-22T00:55:50.242Z,75.15
2023-04-22T00:58:27.245Z,75.40
2023-04-22T01:00:59.870Z,75.55
2023-04-22T01:03:34.458Z,75.85
2023-04-22T01:06:07.085Z,75.86
2023-04-22T01:08:41.060Z,76.00
2023-04-22T01:11:13.402Z,76.02
2023-04-22T01:13:45.797Z,75.84
2023-04-22T01:16:18.683Z,75.59
2023-04-22T01:18:53.087Z,75.50
2023-04-22T01:21:25.676Z,75.21
2023-04-22T01:23:58.368Z,74.57
2023-04-22T01:26:30.947Z,75.39
2023-04-22T01:29:05.205Z,75.89
2023-04-22T01:31:39.148Z,76.15
2023-04-22T01:34:13.482Z,76.35
2023-04-22T01:36:45.249Z,75.79
2023-04-22T01:39:17.645Z,76.31
2023-04-22T01:41:50.498Z,75.88
2023-04-22T01:44:22.884Z,75.49
2023-04-22T01:46:55.802Z,75.78
2023-04-22T01:49:28.541Z,76.46
2023-04-22T01:52:01.977Z,77.08
2023-04-22T01:54:37.970Z,77.47
2023-04-22T01:57:14.421Z,77.65
2023-04-22T01:59:47.890Z,77.38
2023-04-22T02:02:20.880Z,76.52
2023-04-22T02:04:53.376Z,76.29
2023-04-22T02:07:26.164Z,76.90
2023-04-22T02:09:58.724Z,77.76
2023-04-22T02:12:31.497Z,78.04
2023-04-22T02:15:04.566Z,77.27
2023-04-22T02:17:38.076Z,76.73
2023-04-22T02:20:14.458Z,76.18
2023-04-22T02:22:47.544Z,76.41
2023-04-22T02:25:21.366Z,76.75
2023-04-22T02:27:55.741Z,77.12
2023-04-22T02:30:29.857Z,77.65
2023-04-22T02:33:02.924Z,78.23
2023-04-22T02:35:36.438Z,78.54
2023-04-22T02:38:09.202Z,78.62
2023-04-22T02:40:42.634Z,78.48
2023-04-22T02:43:15.104Z,77.84
2023-04-22T02:45:47.711Z,77.65
2023-04-22T02:48:20.755Z,78.16
2023-04-22T02:50:53.882Z,78.64
2023-04-22T02:53:27.741Z,79.17
2023-04-22T02:56:00.456Z,78.70
2023-04-22T02:58:33.027Z,78.17
2023-04-22T03:01:06.504Z,78.21
2023-04-22T03:03:39.695Z,78.31
2023-04-22T03:06:11.791Z,77.59
2023-04-22T03:08:44.061Z,77.81
2023-04-22T03:11:16.728Z,78.11
2023-04-22T03:13:49.705Z,78.79
2023-04-22T03:16:24.606Z,78.78
2023-04-22T03:18:58.149Z,78.51
2023-04-22T03:21:32.749Z,78.59
2023-04-22T03:24:06.884Z,79.11
2023-04-22T03:26:40.109Z,79.63
2023-04-22T03:29:14.786Z,79.94
2023-04-22T03:31:48.364Z,80.19
2023-04-22T03:34:20.983Z,80.38
2023-04-22T03:36:53.832Z,80.62
2023-04-22T03:39:26.435Z,80.42
2023-04-22T03:42:02.231Z,79.79
2023-04-22T03:44:35.817Z,80.30
2023-04-22T03:47:10.350Z,80.57
2023-04-22T03:49:48.279Z,80.32
2023-04-22T03:52:20.792Z,79.89
2023-04-22T03:54:59.712Z,79.84
2023-04-22T03:57:33.061Z,80.27
2023-04-22T04:00:08.464Z,79.94
2023-04-22T04:02:47.145Z,79.77
2023-04-22T04:05:21.936Z,80.27
2023-04-22T04:07:54.426Z,80.39
2023-04-22T04:10:29.646Z,80.43
2023-04-22T04:13:02.831Z,80.35
2023-04-22T04:15:38.423Z,80.58
2023-04-22T04:18:11.822Z,80.17
2023-04-22T04:20:44.256Z,79.88
2023-04-22T04:23:17.152Z,80.02
2023-04-22T04:25:50.258Z,79.84
2023-04-22T04:28:23.510Z,78.24
2023-04-22T04:30:55.934Z,74.11
2023-04-22T04:33:28.877Z,71.51
2023-04-22T04:36:02.063Z,71.41
2023-04-22T04:38:40.686Z,71.68
2023-04-22T04:41:14.623Z,72.43
2023-04-22T04:43:53.110Z,71.73
2023-04-22T04:46:37.203Z,67.49
2023-04-22T04:49:12.874Z,62.62
2023-04-22T04:51:58.628Z,56.30
2023-04-22T04:54:31.964Z,51.82
2023-04-22T04:57:10.299Z,48.43
2023-04-22T04:59:43.326Z,45.79
2023-04-22T05:02:16.534Z,42.63
2023-04-22T05:04:50.908Z,39.06
2023-04-22T05:07:23.798Z,37.85
2023-04-22T05:09:57.216Z,37.44
2023-04-22T05:12:30.096Z,37.34
2023-04-22T05:15:03.019Z,39.10
2023-04-22T05:17:36.592Z,40.13
2023-04-22T05:20:10.889Z,39.18
2023-04-22T05:22:46.286Z,37.72
2023-04-22T05:25:19.591Z,36.08
2023-04-22T05:27:59.148Z,33.89
2023-04-22T05:30:35.016Z,32.99
2023-04-22T05:33:08.788Z,31.42
2023-04-22T05:35:41.447Z,30.41
2023-04-22T05:38:13.968Z,30.85
2023-04-22T05:40:46.675Z,30.49
2023-04-22T05:43:21.164Z,31.82
2023-04-22T05:45:59.732Z,32.41
2023-04-22T05:48:34.502Z,34.78
2023-04-22T05:51:09.282Z,34.38
2023-04-22T05:53:42.185Z,36.05
2023-04-22T05:56:16.106Z,35.47
2023-04-22T05:58:48.821Z,35.57
2023-04-22T06:01:25.201Z,34.07
2023-04-22T06:04:03.380Z,33.75
2023-04-22T06:06:38.040Z,34.19
2023-04-22T06:09:11.246Z,34.43
2023-04-22T06:11:46.110Z,36.31
2023-04-22T06:14:18.569Z,38.68
2023-04-22T06:16:53.432Z,38.87
2023-04-22T06:19:26.042Z,40.96
2023-04-22T06:21:58.440Z,41.91
2023-04-22T06:24:30.895Z,43.00
2023-04-22T06:27:06.650Z,44.56
2023-04-22T06:29:39.608Z,43.81
2023-04-22T06:32:12.634Z,44.16
2023-04-22T06:34:49.393Z,45.19
2023-04-22T06:37:22.133Z,46.65
2023-04-22T06:39:54.718Z,46.72
2023-04-22T06:42:50.989Z,44.46
2023-04-22T06:45:23.389Z,42.30
2023-04-22T06:48:16.129Z,39.63
2023-04-22T06:51:02.414Z,37.40
2023-04-22T06:53:35.665Z,37.80
2023-04-22T06:56:09.107Z,35.81
2023-04-22T06:58:40.667Z,35.63
2023-04-22T07:01:13.247Z,36.38
2023-04-22T07:03:46.860Z,35.90
2023-04-22T07:06:20.755Z,36.17
2023-04-22T07:08:56.836Z,35.74
2023-04-22T07:11:31.688Z,34.99
2023-04-22T07:14:08.637Z,34.71
2023-04-22T07:16:41.981Z,33.78
2023-04-22T07:19:14.428Z,33.72
2023-04-22T07:21:47.174Z,34.93
2023-04-22T07:24:19.893Z,33.21
2023-04-22T07:26:52.459Z,33.33
2023-04-22T07:29:25.047Z,33.68
2023-04-22T07:32:05.301Z,33.88
2023-04-22T07:34:45.767Z,35.68
2023-04-22T07:37:20.128Z,37.21
2023-04-22T07:39:52.641Z,36.80
2023-04-22T07:42:27.851Z,36.99
2023-04-22T07:45:00.343Z,38.39
2023-04-22T07:47:39.198Z,38.83
2023-04-22T07:50:14.733Z,37.69
2023-04-22T07:52:47.378Z,37.08
2023-04-22T07:55:19.752Z,36.98
2023-04-22T07:57:52.388Z,36.02
2023-04-22T08:00:25.036Z,36.16
2023-04-22T08:02:59.667Z,35.43
2023-04-22T08:05:33.225Z,33.31
2023-04-22T08:08:06.238Z,34.51
2023-04-22T08:10:41.223Z,32.80
2023-04-22T08:13:15.849Z,32.90
2023-04-22T08:15:49.744Z,33.19
2023-04-22T08:18:22.142Z,33.61
2023-04-22T08:20:54.649Z,35.32
2023-04-22T08:23:30.841Z,34.31
2023-04-22T08:26:04.490Z,32.15
2023-04-22T08:28:37.970Z,32.30
2023-04-22T08:31:12.390Z,32.51
2023-04-22T08:33:44.818Z,32.85
2023-04-22T08:36:18.014Z,35.28
2023-04-22T08:38:53.150Z,33.28
2023-04-22T08:41:26.089Z,32.91
2023-04-22T08:43:59.291Z,31.06
2023-04-22T08:46:32.639Z,28.72
2023-04-22T08:49:05.404Z,27.74
2023-04-22T08:51:40.479Z,27.79
2023-04-22T08:54:13.500Z,28.76
2023-04-22T08:56:48.101Z,27.13
2023-04-22T08:59:22.356Z,26.52
2023-04-22T09:01:59.394Z,26.88
2023-04-22T09:04:32.338Z,27.56
2023-04-22T09:07:06.054Z,28.26
2023-04-22T09:09:40.316Z,27.50
2023-04-22T09:12:13.143Z,25.85
2023-04-22T09:14:47.357Z,25.49
2023-04-22T09:17:30.913Z,28.87
2023-04-22T09:20:07.102Z,28.60
2023-04-22T09:22:49.895Z,27.47
2023-04-22T09:25:23.822Z,26.41
2023-04-22T09:27:57.612Z,28.20
2023-04-22T09:30:32.168Z,27.48
2023-04-22T09:33:06.841Z,28.81
2023-04-22T09:35:41.506Z,28.96
2023-04-22T09:38:15.216Z,28.58
2023-04-22T09:40:47.487Z,29.45
2023-04-22T09:43:22.321Z,28.12
2023-04-22T09:45:54.644Z,27.85
2023-04-22T09:48:27.134Z,27.16
2023-04-22T09:50:59.336Z,29.12
2023-04-22T09:53:38.579Z,26.43
2023-04-22T09:56:11.519Z,27.70
2023-04-22T09:58:46.165Z,27.35
2023-04-22T10:01:22.613Z,28.91
2023-04-22T10:03:57.177Z,27.32
2023-04-22T10:06:32.272Z,26.34
2023-04-22T10:09:06.943Z,29.07
2023-04-22T10:11:42.070Z,28.58
2023-04-22T10:14:15.564Z,28.48
2023-04-22T10:16:53.302Z,28.57
2023-04-22T10:19:30.221Z,26.64
2023-04-22T10:22:05.038Z,26.98
2023-04-22T10:24:42.207Z,27.64
2023-04-22T10:27:15.138Z,28.83
2023-04-22T10:29:50.277Z,26.84
2023-04-22T10:32:29.483Z,27.49
2023-04-22T10:35:16.906Z,27.77
2023-04-22T10:37:53.990Z,26.34
2023-04-22T10:40:26.676Z,27.87
2023-04-22T10:43:03.961Z,27.67
2023-04-22T10:45:38.999Z,26.65
2023-04-22T10:48:11.514Z,27.55
2023-04-22T10:50:47.359Z,28.03
2023-04-22T10:53:41.009Z,28.62
2023-04-22T10:56:21.341Z,26.75
2023-04-22T10:58:58.860Z,25.98
2023-04-22T11:01:38.415Z,26.40
2023-04-22T11:04:27.551Z,27.48
2023-04-22T11:07:17.636Z,27.49
2023-04-22T11:09:53.873Z,27.53
2023-04-22T11:12:46.943Z,27.22
2023-04-22T11:15:22.611Z,29.11
2023-04-22T11:17:56.413Z,27.38
2023-04-22T11:20:30.772Z,27.05
2023-04-22T11:23:12.634Z,27.65
2023-04-22T11:25:45.364Z,27.66
2023-04-22T11:28:19.366Z,28.41
2023-04-22T11:30:53.569Z,27.51
2023-04-22T11:33:26.119Z,27.59
2023-04-22T11:35:58.922Z,27.76
2023-04-22T11:38:31.782Z,28.75
2023-04-22T11:41:05.391Z,27.56
2023-04-22T11:43:46.930Z,27.01
2023-04-22T11:46:29.166Z,27.80
2023-04-22T11:49:16.739Z,27.72
2023-04-22T11:51:59.987Z,29.05
2023-04-22T11:54:37.666Z,27.50
2023-04-22T11:57:14.305Z,28.35
2023-04-22T11:59:58.152Z,28.22
2023-04-22T12:02:31.573Z,27.42
2023-04-22T12:05:05.154Z,28.47
2023-04-22T12:07:36.396Z,28.58
2023-04-22T12:10:11.997Z,27.62
2023-04-22T12:12:44.521Z,28.78
2023-04-22T12:15:18.828Z,29.23
2023-04-22T12:17:53.303Z,27.10
2023-04-22T12:20:25.715Z,28.88
2023-04-22T12:22:59.232Z,29.31
2023-04-22T12:25:34.060Z,30.39
2023-04-22T12:28:06.605Z,27.39
2023-04-22T12:30:39.426Z,29.88
2023-04-22T12:33:12.385Z,29.49
2023-04-22T12:35:47.267Z,28.07
2023-04-22T12:38:19.709Z,28.69
2023-04-22T12:40:52.405Z,27.71
2023-04-22T12:43:24.806Z,27.91
2023-04-22T12:45:57.554Z,28.03
2023-04-22T12:48:30.308Z,27.61
2023-04-22T12:51:03.240Z,27.47
2023-04-22T12:53:37.681Z,27.15
2023-04-22T12:56:10.236Z,27.37
2023-04-22T12:58:42.914Z,28.03
2023-04-22T13:01:15.604Z,27.82
2023-04-22T13:03:53.553Z,29.21
2023-04-22T13:06:27.037Z,28.27
2023-04-22T13:08:59.462Z,28.09
2023-04-22T13:14:46.725Z,28.56
2023-04-22T13:17:19.807Z,28.03
2023-04-22T13:19:52.274Z,27.96
2023-04-22T13:22:24.763Z,28.81
2023-04-22T13:24:57.718Z,28.05
2023-04-22T13:27:30.408Z,27.86
2023-04-22T13:30:04.225Z,29.03
2023-04-22T13:32:35.224Z,28.13
2023-04-22T13:35:09.696Z,28.35
2023-04-22T13:37:42.182Z,28.73
2023-04-22T13:40:15.193Z,26.94
2023-04-22T13:42:49.716Z,27.39
2023-04-22T13:45:22.683Z,28.43
2023-04-22T13:47:57.031Z,27.56
2023-04-22T13:50:29.539Z,28.34
2023-04-22T13:53:05.214Z,28.63
2023-04-22T13:55:39.648Z,28.86
2023-04-22T13:58:12.338Z,28.58
2023-04-22T14:00:46.508Z,28.74
2023-04-22T14:03:19.686Z,29.43
2023-04-22T14:05:53.681Z,29.07
2023-04-22T14:08:27.485Z,29.01
2023-04-22T14:11:00.534Z,28.53
2023-04-22T14:13:33.429Z,28.61
2023-04-22T14:16:09.851Z,28.53
2023-04-22T14:18:45.942Z,28.29
2023-04-22T14:21:20.770Z,28.65
2023-04-22T14:23:53.586Z,28.72
2023-04-22T14:26:26.087Z,31.64
2023-04-22T14:28:58.627Z,28.33
2023-04-22T14:31:31.398Z,28.41
2023-04-22T14:34:03.023Z,28.27
2023-04-22T14:36:35.840Z,28.43
2023-04-22T14:39:08.471Z,28.61
2023-04-22T14:41:42.025Z,28.69
2023-04-22T14:44:15.378Z,28.56
2023-04-22T14:46:47.874Z,28.78
2023-04-22T14:49:21.518Z,28.67
2023-04-22T14:51:52.320Z,29.05
2023-04-22T14:54:25.178Z,29.47
2023-04-22T14:56:58.919Z,29.37
2023-04-22T14:59:31.976Z,29.38
2023-04-22T15:02:05.643Z,28.34
2023-04-22T15:04:38.327Z,28.67
2023-04-22T15:07:11.039Z,28.66
2023-04-22T15:09:44.188Z,29.39
2023-04-22T15:12:17.073Z,29.80
2023-04-22T15:14:51.782Z,30.09
2023-04-22T15:17:25.610Z,30.10
2023-04-22T15:19:58.462Z,28.70
2023-04-22T15:22:30.886Z,29.42
2023-04-22T15:25:04.291Z,31.56
2023-04-22T15:27:37.632Z,28.84
2023-04-22T15:30:11.948Z,29.22
2023-04-22T15:32:44.622Z,29.19
2023-04-22T15:35:17.366Z,30.30
2023-04-22T15:37:49.998Z,29.13
2023-04-22T15:40:22.792Z,31.24
2023-04-22T15:42:55.673Z,30.83
2023-04-22T15:45:28.574Z,30.02
2023-04-22T15:48:01.722Z,30.20
2023-04-22T15:50:36.828Z,30.45
2023-04-22T15:53:11.258Z,30.63
2023-04-22T15:55:44.631Z,30.89
2023-04-22T15:58:18.590Z,30.48
2023-04-22T16:00:51.481Z,31.67
2023-04-22T16:03:24.249Z,31.50
2023-04-22T16:05:57.217Z,31.22
2023-04-22T16:08:29.842Z,30.19
2023-04-22T16:11:02.652Z,32.12
2023-04-22T16:13:35.346Z,31.72
2023-04-22T16:16:08.185Z,32.30
2023-04-22T16:18:44.097Z,33.04
2023-04-22T16:21:16.974Z,34.02
2023-04-22T16:23:49.971Z,33.50
2023-04-22T16:26:22.612Z,32.41
2023-04-22T16:28:55.804Z,32.87
2023-04-22T16:31:28.205Z,32.43
2023-04-22T16:34:02.393Z,33.56
2023-04-22T16:36:34.955Z,33.99
2023-04-22T16:39:07.935Z,33.17
2023-04-22T16:41:41.328Z,34.23
2023-04-22T16:44:15.412Z,34.48
2023-04-22T16:46:47.770Z,34.42
2023-04-22T16:49:20.500Z,34.79
2023-04-22T16:51:53.101Z,35.40
2023-04-22T16:54:26.013Z,34.91
2023-04-22T16:56:58.957Z,36.06
2023-04-22T16:59:32.272Z,36.12
2023-04-22T17:02:04.766Z,35.36
2023-04-22T17:04:38.064Z,35.90
2023-04-22T17:07:11.293Z,36.95
2023-04-22T17:09:44.040Z,36.91
2023-04-22T17:12:16.623Z,36.64
2023-04-22T17:14:49.778Z,37.87
2023-04-22T17:17:24.299Z,38.52
2023-04-22T17:19:57.156Z,39.11
2023-04-22T17:22:30.055Z,40.20
2023-04-22T17:25:03.091Z,42.79
2023-04-22T17:27:35.901Z,42.58
2023-04-22T17:30:10.559Z,43.21
2023-04-22T17:32:43.172Z,43.10
2023-04-22T17:35:16.757Z,43.44
2023-04-22T17:37:49.114Z,42.79
2023-04-22T17:40:22.562Z,42.66
2023-04-22T17:42:54.901Z,42.10
2023-04-22T17:45:27.693Z,42.63
2023-04-22T17:48:00.020Z,43.80
2023-04-22T17:50:35.417Z,44.25
2023-04-22T17:53:07.690Z,44.17
2023-04-22T17:55:40.344Z,45.08
2023-04-22T17:58:12.805Z,44.77
2023-04-22T18:00:46.576Z,44.26
2023-04-22T18:03:20.486Z,44.86
2023-04-22T18:05:52.763Z,42.37
2023-04-22T18:08:25.208Z,45.14
2023-04-22T18:11:02.505Z,45.48
2023-04-22T18:13:35.662Z,46.08
2023-04-22T18:16:09.357Z,47.04
2023-04-22T18:18:42.427Z,47.49
2023-04-22T18:21:15.316Z,48.47
2023-04-22T18:23:48.136Z,49.31
2023-04-22T18:26:20.854Z,49.40
2023-04-22T18:28:53.334Z,50.56
2023-04-22T18:31:26.022Z,50.64
2023-04-22T18:33:58.616Z,50.71
2023-04-22T18:36:31.083Z,51.62
2023-04-22T18:39:06.630Z,51.94
2023-04-22T18:41:40.184Z,52.20
2023-04-22T18:44:12.836Z,52.43
2023-04-22T18:46:45.598Z,51.98
2023-04-22T18:49:17.962Z,52.17
2023-04-22T18:51:50.977Z,52.37
2023-04-22T18:54:24.367Z,53.43
2023-04-22T18:56:58.929Z,54.08
2023-04-22T18:59:31.564Z,54.28
2023-04-22T19:02:05.228Z,54.54
2023-04-22T19:04:39.349Z,54.48
2023-04-22T19:07:11.087Z,51.65
2023-04-22T19:09:44.385Z,54.02
2023-04-22T19:12:19.757Z,54.27
2023-04-22T19:14:54.463Z,54.79
2023-04-22T19:17:27.588Z,55.54
2023-04-22T19:20:00.169Z,56.33
2023-04-22T19:22:32.905Z,57.18
2023-04-22T19:25:06.699Z,57.49
2023-04-22T19:27:39.452Z,58.08
2023-04-22T19:30:15.103Z,58.14
2023-04-22T19:32:47.663Z,57.85
2023-04-22T19:35:20.855Z,58.04
2023-04-22T19:37:53.609Z,58.28
2023-04-22T19:40:26.380Z,57.87
2023-04-22T19:43:00.482Z,58.08
2023-04-22T19:45:33.643Z,58.56
2023-04-22T19:48:07.602Z,58.78
2023-04-22T19:50:43.613Z,59.26
2023-04-22T19:53:17.612Z,59.37
2023-04-22T19:55:50.256Z,59.69
2023-04-22T19:58:24.053Z,60.10
2023-04-22T20:00:57.806Z,60.82
2023-04-22T20:03:31.395Z,61.83
2023-04-22T20:06:05.899Z,61.36
2023-04-22T20:08:42.284Z,61.22
2023-04-22T20:11:15.654Z,61.32
2023-04-22T20:13:49.808Z,61.44
2023-04-22T20:16:23.610Z,61.39
2023-04-22T20:18:56.752Z,61.64
2023-04-22T20:21:31.328Z,61.54
2023-04-22T20:24:06.431Z,61.84
2023-04-22T20:26:40.678Z,63.09
2023-04-22T20:29:13.323Z,62.55
2023-04-22T20:31:47.019Z,62.60
2023-04-22T20:34:20.352Z,63.40
2023-04-22T20:36:55.872Z,64.12
2023-04-22T20:39:30.527Z,63.65
2023-04-22T20:42:04.181Z,64.77
2023-04-22T20:44:36.813Z,64.45
2023-04-22T20:47:09.591Z,64.78
2023-04-22T20:49:43.289Z,64.93
2023-04-22T20:52:16.716Z,64.90
2023-04-22T20:54:55.467Z,65.68
2023-04-22T20:57:29.090Z,66.42
2023-04-22T21:00:02.470Z,66.19
2023-04-22T21:02:38.829Z,66.05
2023-04-22T21:05:15.165Z,66.77
2023-04-22T21:07:53.418Z,66.56
2023-04-22T21:10:27.318Z,66.41
2023-04-22T21:12:59.811Z,66.98
2023-04-22T21:15:33.790Z,66.59
2023-04-22T21:18:08.133Z,66.58
2023-04-22T21:20:46.860Z,66.63
2023-04-22T21:23:24.394Z,67.03
2023-04-22T21:25:58.990Z,66.89
2023-04-22T21:28:31.810Z,67.91
2023-04-22T21:31:07.512Z,67.78
2023-04-22T21:33:40.090Z,67.53
2023-04-22T21:36:13.997Z,67.63
2023-04-22T21:38:46.918Z,67.25
2023-04-22T21:41:20.633Z,67.28
2023-04-22T21:43:52.945Z,67.07
2023-04-22T21:46:26.020Z,67.50
2023-04-22T21:48:58.698Z,67.32
2023-04-22T21:51:31.728Z,67.26
2023-04-22T21:54:04.955Z,67.78
2023-04-22T21:56:38.710Z,68.29
2023-04-22T21:59:11.168Z,68.03
2023-04-22T22:01:43.796Z,69.80
2023-04-22T22:04:16.663Z,69.67
2023-04-22T22:06:50.173Z,70.04
2023-04-22T22:09:25.036Z,69.73
2023-04-22T22:11:57.909Z,70.02
2023-04-22T22:14:30.148Z,69.90
2023-04-22T22:17:02.581Z,70.02
2023-04-22T22:19:37.448Z,69.87
2023-04-22T22:22:10.717Z,70.01
2023-04-22T22:24:43.658Z,70.13
2023-04-22T22:27:16.804Z,70.08
2023-04-22T22:29:51.700Z,70.21
2023-04-22T22:32:24.522Z,70.22
2023-04-22T22:34:56.807Z,70.49
2023-04-22T22:37:29.681Z,70.37
2023-04-22T22:40:03.011Z,70.39
2023-04-22T22:42:36.418Z,70.21
2023-04-22T22:45:10.813Z,70.59
2023-04-22T22:47:43.969Z,70.91
2023-04-22T22:50:16.598Z,71.03
2023-04-22T22:52:49.930Z,70.98
2023-04-22T22:55:23.250Z,71.18
2023-04-22T22:57:55.853Z,71.73
2023-04-22T23:00:28.424Z,71.61
2023-04-22T23:03:01.052Z,72.00
2023-04-22T23:05:36.375Z,71.98
2023-04-22T23:08:09.019Z,71.95
2023-04-22T23:10:43.892Z,71.90
2023-04-22T23:13:16.715Z,72.14
2023-04-22T23:15:49.094Z,72.45
2023-04-22T23:18:22.014Z,72.48
2023-04-22T23:20:55.044Z,72.62
2023-04-22T23:23:29.569Z,72.71
2023-04-22T23:26:02.124Z,71.42
2023-04-22T23:28:35.771Z,72.18
2023-04-22T23:31:10.513Z,72.42
2023-04-22T23:33:46.686Z,72.65
2023-04-22T23:36:22.484Z,72.74
2023-04-22T23:38:57.762Z,72.94
2023-04-22T23:41:30.552Z,72.94
2023-04-22T23:44:04.116Z,72.81
2023-04-22T23:46:37.134Z,72.74
2023-04-22T23:49:09.923Z,73.05
2023-04-22T23:51:42.826Z,73.15
2023-04-22T23:54:16.344Z,73.27
2023-04-22T23:56:51.946Z,73.48
2023-04-22T23:59:25.856Z,73.74
